Time;durP1;ratioP1;P1;durP2;ratioP2;P2;SDS_P1;SDS_P2;PMS_P1;PMS_P2;Temp;Humidity;BMP_temperature;BMP_pressure;BME280_temperature;BME280_humidity;BME280_pressure;Samples;Min_cycle;Max_cycle;Signal;HPM_P1;HPM_P2
2021/09/09 00:01:08;;;;;;;19.67;14.03;;;;;;;13.24;100.00;101247.75;5028505;28;20029;-74
2021/09/09 00:03:35;;;;;;;25.45;15.43;;;;;;;13.25;100.00;101246.78;5028727;28;20021;-73
2021/09/09 00:06:02;;;;;;;21.25;14.40;;;;;;;13.20;100.00;101232.19;5028097;28;20037;-74
2021/09/09 00:08:28;;;;;;;19.67;13.57;;;;;;;13.16;100.00;101236.19;5027033;28;20037;-73
2021/09/09 00:10:54;;;;;;;;;;;;;;;13.12;100.00;101237.56;5028751;28;20370;-74
2021/09/09 00:13:20;;;;;;;20.02;13.10;;;;;;;13.06;100.00;101234.53;5011091;28;19917;-74
2021/09/09 00:15:46;;;;;;;22.90;14.30;;;;;;;13.01;100.00;101236.03;5027191;28;20509;-74
2021/09/09 00:18:12;;;;;;;22.75;14.68;;;;;;;13.00;100.00;101227.16;5027915;28;20036;-74
2021/09/09 00:20:41;;;;;;;20.65;13.98;;;;;;;13.01;100.00;101226.13;5027222;28;20031;-74
2021/09/09 00:23:08;;;;;;;22.25;15.68;;;;;;;12.99;100.00;101225.47;5010649;28;20041;-74
2021/09/09 00:25:36;;;;;;;19.25;13.57;;;;;;;13.01;100.00;101234.19;5028063;28;20021;-74
2021/09/09 00:28:02;;;;;;;22.27;13.57;;;;;;;12.98;100.00;101218.44;5027883;28;20029;-74
2021/09/09 00:30:28;;;;;;;26.13;15.70;;;;;;;12.98;100.00;101221.13;5027091;28;20026;-74
2021/09/09 00:32:54;;;;;;;;;;;;;;;12.92;100.00;101221.78;5028340;28;20030;-74
2021/09/09 00:35:20;;;;;;;21.77;16.30;;;;;;;12.90;100.00;101221.13;5026827;28;20787;-74
2021/09/09 00:37:46;;;;;;;24.13;16.73;;;;;;;12.92;100.00;101228.97;5027997;28;20045;-73
2021/09/09 00:40:12;;;;;;;21.77;13.93;;;;;;;12.87;100.00;101222.28;5027054;28;20025;-73
2021/09/09 00:42:40;;;;;;;26.55;16.45;;;;;;;12.86;100.00;101227.81;5026938;28;20071;-74
2021/09/09 00:45:05;;;;;;;19.95;13.88;;;;;;;12.83;100.00;101214.72;5027935;28;20068;-73
2021/09/09 00:47:31;;;;;;;21.88;15.30;;;;;;;12.79;100.00;101218.75;5026717;28;20450;-74
2021/09/09 00:49:56;;;;;;;22.57;14.23;;;;;;;12.79;100.00;101211.56;5010333;28;20084;-73
2021/09/09 00:52:21;;;;;;;26.43;14.33;;;;;;;12.72;100.00;101207.03;5010398;28;20037;-74
2021/09/09 00:54:47;;;;;;;20.00;14.23;;;;;;;12.71;100.00;101210.69;5027078;28;20461;-74
2021/09/09 00:57:16;;;;;;;21.08;13.88;;;;;;;12.73;100.00;101203.34;5027716;28;20354;-74
2021/09/09 00:59:43;;;;;;;23.05;15.52;;;;;;;12.71;100.00;101205.34;5010366;28;20052;-73
2021/09/09 01:02:09;;;;;;;23.88;16.15;;;;;;;12.72;100.00;101205.19;5027890;28;20079;-74
2021/09/09 01:04:35;;;;;;;23.05;15.52;;;;;;;12.65;100.00;101205.00;5026597;28;20541;-73
2021/09/09 01:07:00;;;;;;;19.57;13.57;;;;;;;12.65;100.00;101199.66;5027606;28;20069;-74
2021/09/09 01:09:26;;;;;;;20.07;14.63;;;;;;;12.65;100.00;101198.81;5025877;28;20107;-74
2021/09/09 01:11:51;;;;;;;23.43;16.33;;;;;;;12.66;100.00;101201.31;5027027;28;20033;-73
2021/09/09 01:14:18;;;;;;;19.97;13.63;;;;;;;12.65;100.00;101202.31;5027454;28;20052;-74
2021/09/09 01:16:44;;;;;;;;;;;;;;;12.67;100.00;101199.50;5027062;28;20033;-74
2021/09/09 01:19:10;;;;;;;24.35;15.02;;;;;;;12.72;100.00;101207.03;5027398;28;19913;-73
2021/09/09 01:21:37;;;;;;;27.05;17.88;;;;;;;12.72;100.00;101204.34;5029922;28;20041;-74
2021/09/09 01:24:07;;;;;;;;;;;;;;;12.67;100.00;101194.97;5014320;28;20041;-73
2021/09/09 01:26:47;;;;;;;23.08;15.38;;;;;;;12.64;100.00;101199.81;5013960;28;19975;-74
2021/09/09 01:29:12;;;;;;;24.50;15.23;;;;;;;12.62;100.00;101205.34;5030954;28;20068;-74
2021/09/09 01:31:38;;;;;;;24.03;16.17;;;;;;;12.67;100.00;101197.66;5031408;28;20036;-74
2021/09/09 01:34:03;;;;;;;34.13;19.20;;;;;;;12.68;100.00;101199.31;5030897;28;20137;-74
2021/09/09 01:36:28;;;;;;;25.30;17.37;;;;;;;12.60;100.00;101183.25;5031196;28;20112;-74
2021/09/09 01:38:53;;;;;;;22.97;16.43;;;;;;;12.64;100.00;101200.66;5030866;28;20099;-74
2021/09/09 01:41:19;;;;;;;28.00;18.07;;;;;;;12.69;100.00;101192.13;5030343;28;20120;-74
2021/09/09 01:43:44;;;;;;;21.87;15.83;;;;;;;12.66;100.00;101189.75;5013500;28;20037;-74
2021/09/09 01:46:10;;;;;;;24.63;15.57;;;;;;;12.63;100.00;101187.44;5030984;28;20084;-74
2021/09/09 01:48:35;;;;;;;26.57;16.13;;;;;;;12.61;100.00;101190.25;5030018;28;20406;-74
2021/09/09 01:51:01;;;;;;;25.23;17.60;;;;;;;12.64;100.00;101184.59;5031070;28;20041;-74
2021/09/09 01:53:26;;;;;;;25.30;16.27;;;;;;;12.61;100.00;101184.91;5031227;28;20025;-74
2021/09/09 01:55:51;;;;;;;27.73;17.20;;;;;;;12.58;100.00;101179.88;5030679;28;20033;-74
2021/09/09 01:58:16;;;;;;;27.73;15.87;;;;;;;12.56;100.00;101187.25;5030622;28;20131;-74
2021/09/09 02:00:42;;;;;;;25.33;16.90;;;;;;;12.57;100.00;101183.56;5030857;28;20030;-73
2021/09/09 02:03:07;;;;;;;24.00;15.37;;;;;;;12.53;100.00;101184.91;5029858;28;20042;-73
2021/09/09 02:05:32;;;;;;;27.10;16.90;;;;;;;12.51;100.00;101178.88;5030454;28;20037;-74
2021/09/09 02:07:58;;;;;;;23.70;15.70;;;;;;;12.50;100.00;101182.53;5029760;28;20030;-74
2021/09/09 02:10:23;;;;;;;21.57;14.90;;;;;;;12.48;100.00;101179.22;5029106;28;20370;-73
2021/09/09 02:12:49;;;;;;;25.97;15.73;;;;;;;12.48;100.00;101178.34;5030807;28;20061;-74
2021/09/09 02:15:16;;;;;;;28.63;16.42;;;;;;;12.51;100.00;101176.19;5030392;28;20044;-74
2021/09/09 02:17:41;;;;;;;26.48;16.40;;;;;;;12.48;100.00;101165.81;5030577;28;20037;-74
2021/09/09 02:20:07;;;;;;;32.70;19.20;;;;;;;12.54;100.00;101173.16;5030162;28;20037;-73
2021/09/09 02:22:33;;;;;;;;;;;;;;;12.53;100.00;101165.31;5030086;28;20054;-74
2021/09/09 02:24:58;;;;;;;27.67;18.27;;;;;;;12.50;100.00;101161.09;5030148;28;19977;-74
2021/09/09 02:27:23;;;;;;;28.10;18.57;;;;;;;12.51;100.00;101154.75;5030155;28;20299;-74
2021/09/09 02:29:49;;;;;;;25.57;16.90;;;;;;;12.55;100.00;101152.56;5029155;28;20576;-74
2021/09/09 02:32:14;;;;;;;42.83;21.20;;;;;;;12.59;100.00;101160.13;5029125;28;20525;-73
2021/09/09 02:34:40;;;;;;;26.00;18.37;;;;;;;12.64;100.00;101154.25;5030099;28;20033;-74
2021/09/09 02:37:06;;;;;;;33.87;22.97;;;;;;;12.75;100.00;101148.59;5029181;28;20072;-74
2021/09/09 02:39:31;;;;;;;31.85;20.98;;;;;;;12.82;100.00;101156.78;5029830;28;20076;-74
2021/09/09 02:41:57;;;;;;;31.40;20.87;;;;;;;12.85;100.00;101153.78;5030021;28;20036;-73
2021/09/09 02:44:22;;;;;;;36.87;20.23;;;;;;;12.82;100.00;101154.94;5012519;28;20506;-74
2021/09/09 02:46:47;;;;;;;28.70;19.70;;;;;;;12.86;100.00;101152.78;5029870;28;20344;-74
2021/09/09 02:49:13;;;;;;;30.47;21.10;;;;;;;12.84;100.00;101149.44;5029865;28;20377;-73
2021/09/09 02:51:38;;;;;;;32.93;20.70;;;;;;;12.83;100.00;101145.06;5028915;28;20390;-74
2021/09/09 02:54:03;;;;;;;29.30;19.43;;;;;;;12.76;100.00;101139.56;5028836;28;20056;-73
2021/09/09 02:56:29;;;;;;;33.50;21.80;;;;;;;12.71;100.00;101139.19;5028678;28;20541;-74
2021/09/09 02:58:57;;;;;;;29.77;19.23;;;;;;;12.73;100.00;101134.50;5029581;28;20090;-73
2021/09/09 03:01:22;;;;;;;25.95;19.17;;;;;;;12.71;100.00;101135.69;5028684;28;20037;-73
2021/09/09 03:03:48;;;;;;;27.33;18.60;;;;;;;12.65;100.00;101124.66;5029892;28;20466;-74
2021/09/09 03:06:13;;;;;;;26.77;16.67;;;;;;;12.64;100.00;101131.03;5028417;28;20040;-73
2021/09/09 03:08:38;;;;;;;33.60;19.50;;;;;;;12.65;100.00;101130.00;5028201;28;20038;-73
2021/09/09 03:11:04;;;;;;;27.20;19.07;;;;;;;12.71;100.00;101119.63;5029681;28;20124;-74
2021/09/09 03:13:29;;;;;;;31.43;18.60;;;;;;;12.67;100.00;101119.97;5028432;28;20152;-73
2021/09/09 03:15:55;;;;;;;30.03;19.93;;;;;;;12.64;100.00;101119.44;5029413;28;20046;-74
2021/09/09 03:18:20;;;;;;;28.13;18.50;;;;;;;12.65;100.00;101116.59;5011559;28;20041;-73
2021/09/09 03:20:45;;;;;;;28.13;18.37;;;;;;;12.65;100.00;101116.59;5028572;28;20056;-73
2021/09/09 03:23:11;;;;;;;26.43;18.43;;;;;;;12.63;100.00;101109.75;5029153;28;20037;-73
2021/09/09 03:25:36;;;;;;;29.03;18.63;;;;;;;12.62;100.00;101114.28;5028196;28;20042;-74
2021/09/09 03:28:01;;;;;;;27.30;17.57;;;;;;;12.65;100.00;101103.22;5028090;28;20478;-74
2021/09/09 03:30:27;;;;;;;26.70;16.77;;;;;;;12.61;100.00;101098.34;5028057;28;20378;-74
2021/09/09 03:32:52;;;;;;;32.47;20.33;;;;;;;12.66;100.00;101098.69;5011661;28;20041;-74
2021/09/09 03:35:18;;;;;;;26.63;18.93;;;;;;;12.60;100.00;101081.44;5027997;28;20124;-74
2021/09/09 03:37:43;;;;;;;30.13;19.70;;;;;;;12.70;100.00;101091.16;5028849;28;20212;-74
2021/09/09 03:40:09;;;;;;;38.60;20.90;;;;;;;12.77;100.00;101095.69;5028858;28;20045;-74
2021/09/09 03:42:35;;;;;;;31.25;19.48;;;;;;;12.80;100.00;101091.81;5027851;28;20098;-74
2021/09/09 03:45:00;;;;;;;31.43;20.50;;;;;;;12.83;100.00;101089.66;5027512;28;20041;-74
2021/09/09 03:47:25;;;;;;;29.67;20.80;;;;;;;12.82;100.00;101084.44;5027768;28;20466;-74
2021/09/09 03:49:51;;;;;;;34.57;21.30;;;;;;;12.76;100.00;101080.63;5027597;28;20112;-74
2021/09/09 03:52:16;;;;;;;33.90;21.50;;;;;;;12.77;100.00;101076.09;5027896;28;20060;-73
2021/09/09 03:54:41;;;;;;;32.00;19.57;;;;;;;12.75;100.00;101083.47;5028377;28;20037;-74
2021/09/09 03:57:07;;;;;;;28.63;19.37;;;;;;;12.76;100.00;101079.75;5027995;28;20037;-74
2021/09/09 03:59:32;;;;;;;36.80;21.07;;;;;;;12.76;100.00;101079.75;5027454;28;20130;-74
2021/09/09 04:01:59;;;;;;;30.60;20.30;;;;;;;12.85;100.00;101070.72;5027848;28;20119;-74
2021/09/09 04:04:24;;;;;;;29.95;21.33;;;;;;;12.89;100.00;101074.72;5028305;28;20033;-74
2021/09/09 04:06:50;;;;;;;30.80;20.17;;;;;;;12.87;100.00;101076.75;5011105;28;20038;-73
2021/09/09 04:09:15;;;;;;;29.13;19.80;;;;;;;12.87;100.00;101074.06;5027192;28;20037;-74
2021/09/09 04:11:40;;;;;;;28.60;19.77;;;;;;;12.87;100.00;101077.56;5011099;28;20033;-74
2021/09/09 04:14:06;;;;;;;30.17;21.50;;;;;;;12.88;100.00;101073.06;5028138;28;20084;-74
2021/09/09 04:16:31;;;;;;;28.27;19.83;;;;;;;12.82;100.00;101068.38;5028544;28;20033;-74
2021/09/09 04:18:56;;;;;;;31.20;20.27;;;;;;;12.78;100.00;101067.91;5028158;28;20490;-74
2021/09/09 04:21:22;;;;;;;24.17;18.03;;;;;;;12.76;100.00;101063.69;5027718;28;20419;-73
2021/09/09 04:23:47;;;;;;;29.60;18.73;;;;;;;12.71;100.00;101072.22;5028013;28;20486;-74
2021/09/09 04:26:12;;;;;;;27.63;19.37;;;;;;;12.72;100.00;101057.84;5027626;28;20473;-73
2021/09/09 04:28:38;;;;;;;30.87;20.47;;;;;;;12.74;100.00;101050.47;5027577;28;20565;-74
2021/09/09 04:31:03;;;;;;;27.20;20.07;;;;;;;12.71;100.00;101047.28;5027358;28;20432;-74
2021/09/09 04:33:28;;;;;;;34.33;22.20;;;;;;;12.78;100.00;101057.19;5028545;28;20029;-74
2021/09/09 04:35:54;;;;;;;34.00;21.57;;;;;;;12.84;100.00;101050.28;5028007;28;20048;-74
2021/09/09 04:38:19;;;;;;;32.17;21.57;;;;;;;12.90;100.00;101046.94;5027090;28;20049;-74
2021/09/09 04:40:44;;;;;;;31.70;21.37;;;;;;;12.98;100.00;101046.91;5028343;28;20037;-74
2021/09/09 04:43:10;;;;;;;32.73;21.37;;;;;;;12.98;100.00;101041.56;5027519;28;20225;-74
2021/09/09 04:45:35;;;;;;;31.37;20.13;;;;;;;13.05;100.00;101041.72;5027081;28;20037;-74
2021/09/09 04:48:01;;;;;;;33.53;22.57;;;;;;;13.07;100.00;101045.06;5028305;28;20461;-74
2021/09/09 04:50:27;;;;;;;28.73;20.40;;;;;;;13.11;100.00;101041.03;5026995;28;20033;-74
2021/09/09 04:52:53;;;;;;;34.10;20.30;;;;;;;13.13;100.00;101043.53;5027138;28;20132;-73
2021/09/09 04:55:18;;;;;;;30.30;20.53;;;;;;;13.08;100.00;101036.81;5028091;28;20481;-74
2021/09/09 04:57:43;;;;;;;34.23;22.23;;;;;;;13.15;100.00;101044.19;5031181;28;20030;-74
2021/09/09 05:00:09;;;;;;;30.90;21.60;;;;;;;13.22;100.00;101042.50;5031918;28;20049;-73
2021/09/09 05:02:34;;;;;;;33.03;22.42;;;;;;;13.21;100.00;101030.94;5031482;28;20032;-74
2021/09/09 05:05:00;;;;;;;30.90;21.17;;;;;;;13.25;100.00;101036.78;5032017;28;20482;-74
2021/09/09 05:07:25;;;;;;;36.57;22.57;;;;;;;13.27;100.00;101032.06;5030931;28;20363;-74
2021/09/09 05:09:50;;;;;;;31.33;21.77;;;;;;;13.34;100.00;101040.31;5031190;28;20037;-74
2021/09/09 05:12:16;;;;;;;28.00;20.23;;;;;;;13.33;100.00;101034.09;5031981;28;20108;-74
2021/09/09 05:14:41;;;;;;;33.50;23.03;;;;;;;13.36;100.00;101028.38;5030996;28;20057;-74
2021/09/09 05:17:07;;;;;;;32.43;22.60;;;;;;;13.42;100.00;101033.06;5031030;28;20033;-74
2021/09/09 05:19:32;;;;;;;30.83;20.70;;;;;;;13.46;100.00;101023.69;5031336;28;20346;-74
2021/09/09 05:21:57;;;;;;;37.57;23.53;;;;;;;13.56;100.00;101034.19;5014311;28;20060;-74
2021/09/09 05:24:23;;;;;;;34.30;22.53;;;;;;;13.61;100.00;101031.81;5031730;28;20037;-74
2021/09/09 05:26:48;;;;;;;33.07;20.70;;;;;;;13.64;100.00;101031.44;5031466;28;20035;-73
2021/09/09 05:29:13;;;;;;;30.23;20.77;;;;;;;13.69;100.00;101028.22;5030576;28;20033;-74
2021/09/09 05:31:39;;;;;;;29.50;20.50;;;;;;;13.83;100.00;101019.44;5030472;28;20114;-74
2021/09/09 05:34:04;;;;;;;31.33;20.13;;;;;;;13.89;100.00;101025.97;5031320;28;20121;-74
2021/09/09 05:36:29;;;;;;;31.63;21.20;;;;;;;13.98;100.00;101011.47;5030200;28;20029;-74
2021/09/09 05:38:55;;;;;;;28.30;18.70;;;;;;;14.03;100.00;101014.44;5030783;28;20033;-74
2021/09/09 05:41:20;;;;;;;33.67;21.07;;;;;;;14.10;100.00;101014.56;5013711;28;20488;-74
2021/09/09 05:43:45;;;;;;;27.15;19.27;;;;;;;14.21;100.00;101010.63;5030296;28;20037;-73
2021/09/09 05:46:11;;;;;;;30.57;20.83;;;;;;;14.30;100.00;101013.06;5031231;28;20417;-74
2021/09/09 05:48:36;;;;;;;31.00;21.63;;;;;;;14.43;100.00;101014.31;5031164;28;20482;-73
2021/09/09 05:51:02;;;;;;;35.47;21.40;;;;;;;14.54;100.00;101008.53;5030536;28;20470;-73
2021/09/09 05:53:27;;;;;;;27.97;21.13;;;;;;;14.69;100.00;101013.94;5030394;28;20395;-73
2021/09/09 05:55:52;;;;;;;29.53;20.93;;;;;;;15.05;100.00;101008.66;5030351;28;20074;-73
2021/09/09 05:58:18;;;;;;;27.97;18.53;;;;;;;16.37;100.00;101005.84;5029844;28;20466;-74
2021/09/09 06:00:43;;;;;;;25.00;15.63;;;;;;;17.57;95.46;100998.50;5031325;28;20045;-74
2021/09/09 06:03:08;;;;;;;23.03;16.40;;;;;;;18.27;88.07;100992.84;5031182;28;20063;-74
2021/09/09 06:05:35;;;;;;;21.50;15.27;;;;;;;19.06;84.58;100991.97;5030997;28;20049;-74
2021/09/09 06:08:03;;;;;;;20.73;14.55;;;;;;;19.60;81.32;100995.28;5029434;28;20355;-74
2021/09/09 06:10:29;;;;;;;23.35;15.25;;;;;;;20.04;78.60;100996.28;5030320;28;20078;-74
2021/09/09 06:12:54;;;;;;;18.27;13.30;;;;;;;20.58;76.21;100999.44;5030071;28;20144;-74
2021/09/09 06:15:19;;;;;;;19.97;13.40;;;;;;;21.02;74.44;100994.81;5013326;28;20056;-74
2021/09/09 06:17:45;;;;;;;17.50;12.40;;;;;;;21.27;72.73;100992.03;5029627;28;20037;-74
2021/09/09 06:20:11;;;;;;;20.67;14.97;;;;;;;20.85;73.23;100983.75;5029459;28;20053;-74
2021/09/09 06:22:36;;;;;;;17.45;13.50;;;;;;;21.29;72.67;100995.38;5030032;28;20038;-74
2021/09/09 06:25:02;;;;;;;19.30;14.13;;;;;;;21.39;71.54;100990.22;5030609;28;20086;-74
2021/09/09 06:27:27;;;;;;;17.83;12.88;;;;;;;21.69;70.88;100990.25;5013223;28;20033;-74
2021/09/09 06:29:53;;;;;;;19.13;13.50;;;;;;;21.92;70.38;100994.13;5029554;28;20045;-74
2021/09/09 06:32:18;;;;;;;23.07;14.33;;;;;;;22.04;68.89;100995.00;5013184;28;20022;-74
2021/09/09 06:34:43;;;;;;;19.17;14.00;;;;;;;22.44;68.35;100991.66;5029285;28;20027;-74
2021/09/09 06:37:09;;;;;;;18.90;13.77;;;;;;;22.56;67.60;100988.94;5030542;28;20520;-74
2021/09/09 06:39:34;;;;;;;14.57;11.88;;;;;;;22.19;68.65;100989.09;5029127;28;20584;-71
2021/09/09 06:42:00;;;;;;;17.00;13.03;;;;;;;22.63;66.76;100988.84;5029647;28;20049;-71
2021/09/09 06:44:25;;;;;;;19.07;13.57;;;;;;;22.59;65.58;100985.75;5030177;28;20116;-71
2021/09/09 06:46:50;;;;;;;22.97;12.77;;;;;;;22.78;66.24;100989.19;5029411;28;20112;-72
2021/09/09 06:49:16;;;;;;;19.85;13.75;;;;;;;22.43;66.93;100991.88;5030031;28;20029;-71
2021/09/09 06:51:41;;;;;;;18.40;13.10;;;;;;;22.33;67.86;100995.19;5030408;28;20493;-71
2021/09/09 06:54:06;;;;;;;17.93;13.47;;;;;;;22.08;68.28;100992.66;5012381;28;20036;-71
2021/09/09 06:56:32;;;;;;;17.27;12.47;;;;;;;22.14;67.86;100997.13;5030129;28;20045;-71
2021/09/09 06:58:57;;;;;;;17.80;13.53;;;;;;;22.46;67.79;100991.44;5029850;28;20033;-72
2021/09/09 07:01:22;;;;;;;23.40;12.40;;;;;;;22.51;67.10;100997.81;5077321;22;20068;-86
2021/09/09 07:03:48;;;;;;;13.23;10.53;;;;;;;22.95;65.90;101001.00;5009068;28;20124;-86
2021/09/09 07:06:15;;;;;;;20.33;12.52;;;;;;;23.06;65.03;100988.47;5015872;28;20064;-84
2021/09/09 07:08:40;;;;;;;20.65;13.75;;;;;;;22.90;65.33;100983.75;5017046;28;20060;-84
2021/09/09 07:11:06;;;;;;;16.17;12.33;;;;;;;22.08;66.96;100979.06;5016255;28;20037;-85
2021/09/09 07:13:45;;;;;;;21.37;13.23;;;;;;;21.61;68.77;100974.31;5016689;28;20037;-87
2021/09/09 07:16:14;;;;;;;21.73;14.50;;;;;;;20.95;71.98;100984.03;5002180;28;20288;-87
2021/09/09 07:18:39;;;;;;;20.13;13.95;;;;;;;20.73;71.79;100980.13;5016794;28;20033;-87
2021/09/09 07:21:06;;;;;;;20.63;15.47;;;;;;;20.78;72.41;100964.81;5015794;28;20048;-88
2021/09/09 07:23:31;;;;;;;18.17;12.52;;;;;;;20.76;72.00;100976.94;5034338;28;20084;-87
2021/09/09 07:25:57;;;;;;;22.03;13.63;;;;;;;21.14;71.24;100975.91;5018704;28;20433;-85
2021/09/09 07:28:22;;;;;;;18.50;13.20;;;;;;;21.15;71.84;100983.81;5035318;28;20388;-87
2021/09/09 07:30:47;;;;;;;18.70;13.63;;;;;;;20.88;70.85;100991.41;5017797;28;20437;-85
2021/09/09 07:33:13;;;;;;;21.13;14.53;;;;;;;20.72;70.63;100984.72;5034813;28;20040;-84
2021/09/09 07:35:38;;;;;;;16.23;12.57;;;;;;;21.23;69.40;100985.41;5034769;28;20042;-83
2021/09/09 07:38:04;;;;;;;22.50;14.53;;;;;;;20.75;70.16;100983.44;5034671;28;20647;-82
2021/09/09 07:40:29;;;;;;;18.57;14.37;;;;;;;20.43;71.56;100986.19;5017874;28;20024;-85
2021/09/09 07:42:54;;;;;;;17.70;13.02;;;;;;;20.61;72.36;100988.97;5018509;28;20037;-84
2021/09/09 07:45:20;;;;;;;18.00;13.10;;;;;;;20.30;71.94;100980.88;5018237;28;20091;-84
2021/09/09 07:47:46;;;;;;;18.90;12.90;;;;;;;20.94;69.18;100982.38;5019434;28;20032;-86
2021/09/09 07:50:12;;;;;;;19.23;12.38;;;;;;;20.84;71.11;100984.81;5036047;28;20037;-86
2021/09/09 07:52:40;;;;;;;21.27;13.10;;;;;;;21.27;68.46;100981.19;5036440;28;20064;-86
2021/09/09 07:55:07;;;;;;;17.38;13.13;;;;;;;21.34;68.31;100984.63;5020372;28;20029;-85
2021/09/09 07:57:32;;;;;;;18.77;12.02;;;;;;;21.41;69.03;100988.13;5019142;28;20437;-86
2021/09/09 07:59:57;;;;;;;17.70;12.47;;;;;;;21.68;66.67;100974.19;5017965;28;20037;-86
2021/09/09 08:02:23;;;;;;;17.13;11.73;;;;;;;21.58;67.79;100971.19;5035688;28;20037;-85
2021/09/09 08:04:48;;;;;;;18.13;12.23;;;;;;;21.40;66.97;100970.19;5019472;28;20033;-85
2021/09/09 08:07:13;;;;;;;15.93;11.40;;;;;;;22.12;66.63;100969.34;5035540;28;20040;-86
2021/09/09 08:09:39;;;;;;;17.10;11.30;;;;;;;22.93;64.30;100977.81;5019553;28;20032;-84
2021/09/09 08:12:06;;;;;;;22.00;12.73;;;;;;;22.41;62.93;100967.66;5017330;28;20059;-83
2021/09/09 08:14:31;;;;;;;14.68;10.43;;;;;;;22.42;62.62;100968.47;5034060;28;20033;-85
2021/09/09 08:16:57;;;;;;;14.20;9.77;;;;;;;23.75;61.42;100974.88;5034907;28;20048;-84
2021/09/09 08:19:22;;;;;;;15.13;10.70;;;;;;;24.58;59.65;100974.34;5035130;28;20537;-86
2021/09/09 08:21:47;;;;;;;12.00;10.20;;;;;;;24.78;57.24;100974.66;5019430;28;20037;-84
2021/09/09 08:24:13;;;;;;;22.67;12.63;;;;;;;25.20;56.16;100971.41;5016633;28;20025;-83
2021/09/09 08:26:38;;;;;;;12.57;9.70;;;;;;;25.92;54.57;100974.09;5018107;28;20045;-83
2021/09/09 08:29:04;;;;;;;13.07;10.15;;;;;;;25.98;54.43;100967.63;5033337;28;20017;-84
2021/09/09 08:31:29;;;;;;;14.70;9.53;;;;;;;26.50;54.34;100972.38;5034116;28;20142;-85
2021/09/09 08:33:55;;;;;;;12.90;9.82;;;;;;;26.41;52.33;100973.97;5027464;28;20303;-84
2021/09/09 08:36:21;;;;;;;12.25;10.18;;;;;;;27.05;51.13;100968.34;5043278;28;20041;-85
2021/09/09 08:38:48;;;;;;;15.38;9.05;;;;;;;27.01;52.62;100966.41;5013657;28;20025;-84
2021/09/09 08:41:13;;;;;;;12.88;10.40;;;;;;;26.75;52.24;100969.03;5013373;28;20487;-84
2021/09/09 08:43:38;;;;;;;15.33;10.03;;;;;;;27.19;52.43;100970.63;5012672;28;20029;-84
2021/09/09 08:46:04;;;;;;;12.50;9.97;;;;;;;26.39;52.52;100957.81;5012875;28;20300;-84
2021/09/09 08:48:31;;;;;;;12.90;9.93;;;;;;;26.84;50.86;100964.69;5012936;28;20041;-84
2021/09/09 08:50:57;;;;;;;14.88;9.20;;;;;;;27.34;51.86;100962.47;5027583;28;20037;-84
2021/09/09 08:53:23;;;;;;;13.40;8.68;;;;;;;28.27;49.71;100968.94;5012576;28;20116;-84
2021/09/09 08:55:50;;;;;;;;;;;;;;;27.99;49.76;100957.41;4999958;28;20037;-85
2021/09/09 08:58:16;;;;;;;13.90;9.82;;;;;;;28.54;48.95;100952.16;5011166;28;19921;-85
2021/09/09 09:01:27;;;;;;;12.68;9.20;;;;;;;28.54;48.26;100952.16;4988447;28;20479;-86
2021/09/09 09:04:03;;;;;;;14.45;9.45;;;;;;;28.56;48.68;100949.94;5023943;28;20042;-85
2021/09/09 09:06:32;;;;;;;12.40;8.13;;;;;;;28.26;48.35;100954.38;5022102;28;20104;-87
2021/09/09 09:09:00;;;;;;;9.98;8.52;;;;;;;28.75;47.82;100952.94;4995762;28;20025;-87
2021/09/09 09:11:34;;;;;;;13.13;9.10;;;;;;;29.12;47.27;100955.28;5014040;28;20052;-86
2021/09/09 09:14:00;;;;;;;13.98;8.77;;;;;;;28.70;46.80;100952.94;4987110;28;20052;-86
2021/09/09 09:16:26;;;;;;;12.95;9.32;;;;;;;27.43;48.62;100949.88;5027022;28;20030;-87
2021/09/09 09:18:52;;;;;;;12.95;9.43;;;;;;;26.66;49.07;100943.22;5004959;28;20037;-85
2021/09/09 09:21:21;;;;;;;13.45;9.27;;;;;;;27.53;49.45;100951.81;4997796;28;20490;-85
2021/09/09 09:23:56;;;;;;;11.80;8.32;;;;;;;28.28;46.23;100918.41;4997282;28;20037;-85
2021/09/09 09:26:21;;;;;;;14.07;7.78;;;;;;;27.97;44.73;100937.63;4996395;28;20033;-86
2021/09/09 09:28:49;;;;;;;11.30;8.02;;;;;;;27.60;46.59;100944.16;4996856;28;20036;-86
2021/09/09 09:31:19;;;;;;;11.23;7.55;;;;;;;28.12;46.89;100934.06;4997624;28;20049;-83
2021/09/09 09:33:46;;;;;;;11.43;8.30;;;;;;;27.83;46.33;100931.88;5014502;28;20048;-84
2021/09/09 09:36:21;;;;;;;14.55;8.20;;;;;;;28.25;46.28;100932.69;4997386;28;20021;-81
2021/09/09 09:38:52;;;;;;;11.73;7.07;;;;;;;27.37;46.26;100931.78;5013464;28;20092;-83
2021/09/09 09:41:20;;;;;;;9.35;7.30;;;;;;;27.16;46.08;100909.78;5013617;28;20037;-82
2021/09/09 09:44:13;;;;;;;11.35;6.78;;;;;;;26.95;45.09;100921.75;5000414;28;20129;-84
2021/09/09 09:46:41;;;;;;;10.82;6.57;;;;;;;27.15;46.12;100924.53;5013623;28;20046;-82
2021/09/09 09:49:25;;;;;;;17.60;6.70;;;;;;;25.79;45.82;100916.00;5016102;28;20044;-83
2021/09/09 09:51:53;;;;;;;8.43;6.38;;;;;;;25.63;46.68;100912.28;5015495;28;20200;-85
2021/09/09 09:54:20;;;;;;;9.57;6.60;;;;;;;26.49;45.83;100914.09;5017039;28;20033;-85
2021/09/09 09:56:47;;;;;;;8.32;6.28;;;;;;;27.30;44.05;100912.84;5000143;28;20029;-85
2021/09/09 09:59:12;;;;;;;11.30;7.47;;;;;;;28.23;41.45;100904.69;5017177;28;20037;-83
2021/09/09 10:01:38;;;;;;;8.82;6.28;;;;;;;28.03;41.46;100902.81;5000613;28;20444;-84
2021/09/09 10:04:05;;;;;;;8.77;6.53;;;;;;;27.17;41.24;100913.31;5000230;28;20501;-83
2021/09/09 10:06:32;;;;;;;11.88;6.45;;;;;;;25.85;44.86;100895.00;5000373;28;20121;-83
2021/09/09 10:08:58;;;;;;;9.68;6.55;;;;;;;26.32;44.99;100910.69;5016224;28;20037;-84
2021/09/09 10:11:24;;;;;;;7.93;5.95;;;;;;;26.59;43.40;100894.19;5000303;28;20040;-84
2021/09/09 10:13:50;;;;;;;8.77;6.63;;;;;;;25.79;44.13;100906.97;5000145;28;20051;-84
2021/09/09 10:16:16;;;;;;;9.07;6.85;;;;;;;26.23;43.80;100904.06;5000913;28;20033;-84
2021/09/09 10:18:45;;;;;;;9.38;6.28;;;;;;;27.21;44.62;100914.47;5002583;28;20041;-85
2021/09/09 10:21:11;;;;;;;10.77;6.13;;;;;;;27.58;43.21;100903.31;5004357;28;20036;-84
2021/09/09 10:23:36;;;;;;;11.32;6.95;;;;;;;27.17;43.99;100900.44;5001458;28;20026;-86
2021/09/09 10:26:02;;;;;;;11.40;6.73;;;;;;;27.76;42.22;100904.69;5000669;28;20033;-84
2021/09/09 10:28:38;;;;;;;;;;;;;;;26.69;44.24;100907.94;5000293;28;20769;-85
2021/09/09 10:31:07;;;;;;;14.50;7.38;;;;;;;27.88;41.62;100900.88;5015385;28;20759;-85
2021/09/09 10:33:32;;;;;;;19.33;7.38;;;;;;;27.39;43.28;100899.41;5016834;28;20021;-87
2021/09/09 10:35:58;;;;;;;14.48;7.43;;;;;;;26.98;44.50;100901.22;4998388;28;20033;-87
2021/09/09 10:38:31;;;;;;;;;;;;;;;26.45;45.88;100896.53;4999026;28;20053;-84
2021/09/09 10:40:58;;;;;;;14.80;7.03;;;;;;;26.31;47.30;100895.34;4999008;28;19921;-84
2021/09/09 10:43:24;;;;;;;12.90;7.47;;;;;;;27.50;44.56;100884.63;4999904;28;20099;-81
2021/09/09 10:45:58;;;;;;;18.70;8.50;;;;;;;27.54;44.40;100877.53;4999001;28;20037;-81
2021/09/09 10:48:24;;;;;;;9.93;6.95;;;;;;;28.24;44.05;100878.88;5016629;28;20037;-82
2021/09/09 10:51:02;;;;;;;8.07;6.47;;;;;;;28.16;43.64;100880.28;4999390;28;20164;-84
2021/09/09 10:53:35;;;;;;;13.00;7.45;;;;;;;27.47;44.93;100896.16;5014326;28;20034;-83
2021/09/09 10:56:12;;;;;;;14.75;8.02;;;;;;;26.34;46.36;100878.44;4999167;28;20037;-81
2021/09/09 10:58:41;;;;;;;22.35;8.48;;;;;;;26.45;45.84;100874.63;5015496;28;20128;-81
2021/09/09 11:01:08;;;;;;;8.63;7.15;;;;;;;27.06;44.03;100845.88;4999580;28;20108;-85
2021/09/09 11:03:48;;;;;;;14.48;7.55;;;;;;;28.70;43.95;100878.78;4999663;28;20029;-82
2021/09/09 11:06:22;;;;;;;18.00;8.10;;;;;;;26.91;45.89;100872.13;4997428;28;20505;-84